CYVP

Kuujjuaq Airport

Kuujjuaq, Quebec, Canada
METAR CYVP 110200Z 23006KT 15SM IC SKC M27/M30 A3022 RMK SLP243
Observed Flight Rules
Dec-11 @ 02:00 UTC (26 minutes ago) Visual Flight Rules
Wind Visibility Clouds Conditions
230° at 6 knots 15 miles
  • Clear skies
  • Ice crystals
Temperatures Readings
Current -27°C / -17°F
Dewpoint -30°C / -22°F
Humidity 76%
Altimeter 30.22" Hg
Pressure 1024.3 hPa
Elevation 60
METAR CYVP 110200Z 23006KT 15SM IC SKC M27/M30 A3022 RMK SLP243
Observed Flight Rules
Dec-11 @ 02:00 UTC
(26 minutes ago)
VFR
Wind Visibility
230° at 6 knots 15 miles
Clouds
  • Clear skies
Conditions
  • Ice crystals
Temperature Dewpoint
-27°C / -17°F -30°C / -22°F
Humidity Altimeter Pressure
76% 30.22" Hg 1024.3 hPa